Time;durP1;ratioP1;P1;durP2;ratioP2;P2;SDS_P1;SDS_P2;PMS_P1;PMS_P2;Temp;Humidity;BMP_temperature;BMP_pressure;BME280_temperature;BME280_humidity;BME280_pressure;Samples;Min_cycle;Max_cycle;Signal;HPM_P1;HPM_P2
2021/12/23 00:01:06;;;;;;;22.63;10.57;;;;;;;;;;5068001;28;20036;-61
2021/12/23 00:03:32;;;;;;;22.98;11.52;;;;;;;;;;5071855;28;20089;-61
2021/12/23 00:05:57;;;;;;;21.27;11.50;;;;;;;;;;5070611;28;20063;-62
2021/12/23 00:08:23;;;;;;;22.38;11.45;;;;;;;;;;5072096;28;20385;-61
2021/12/23 00:10:48;;;;;;;23.63;11.75;;;;;;;;;;5067763;28;20447;-61
2021/12/23 00:13:14;;;;;;;21.48;10.77;;;;;;;;;;5069205;28;20040;-61
2021/12/23 00:16:02;;;;;;;22.90;11.45;;;;;;;;;;5069375;28;20067;-61
2021/12/23 00:23:58;;;;;;;20.20;10.82;;;;;;;;;;5069025;28;20077;-62
2021/12/23 00:26:24;;;;;;;26.80;12.05;;;;;;;;;;5069747;28;20024;-61
2021/12/23 00:28:49;;;;;;;24.20;11.13;;;;;;;;;;5071269;28;20514;-61
2021/12/23 00:31:15;;;;;;;21.40;10.95;;;;;;;;;;5069339;28;20174;-61
2021/12/23 00:33:42;;;;;;;20.30;11.00;;;;;;;;;;5068988;28;20397;-61
2021/12/23 00:36:09;;;;;;;21.40;11.38;;;;;;;;;;5069503;28;20036;-62
2021/12/23 00:38:40;;;;;;;22.88;11.35;;;;;;;;;;5069924;28;20086;-61
2021/12/23 00:41:05;;;;;;;23.67;11.98;;;;;;;;;;5063365;28;20108;-62
2021/12/23 00:43:32;;;;;;;21.00;10.95;;;;;;;;;;5061288;28;20118;-62
2021/12/23 00:45:58;;;;;;;20.48;11.02;;;;;;;;;;5067123;28;20032;-62
2021/12/23 00:48:24;;;;;;;21.45;11.18;;;;;;;;;;5068388;28;20059;-61
2021/12/23 00:50:50;;;;;;;22.80;11.18;;;;;;;;;;5070658;28;20067;-62
2021/12/23 00:53:20;;;;;;;20.50;10.38;;;;;;;;;;5069628;28;20028;-61
2021/12/23 00:55:50;;;;;;;22.10;11.05;;;;;;;;;;5069987;28;20043;-61
2021/12/23 00:58:15;;;;;;;21.25;10.70;;;;;;;;;;5068642;28;20105;-61
2021/12/23 01:00:41;;;;;;;19.55;10.25;;;;;;;;;;5070255;28;20457;-62
2021/12/23 01:03:06;;;;;;;20.13;10.50;;;;;;;;;;5071078;28;20056;-61
2021/12/23 01:05:32;;;;;;;22.48;11.95;;;;;;;;;;5071678;28;20431;-62
2021/12/23 01:08:00;;;;;;;23.95;11.27;;;;;;;;;;5072972;28;20060;-61
2021/12/23 01:10:27;;;;;;;21.48;10.95;;;;;;;;;;5073655;28;20025;-61
2021/12/23 01:13:00;;;;;;;19.98;10.43;;;;;;;;;;5069974;28;20048;-61
2021/12/23 01:18:00;;;;;;;21.67;11.68;;;;;;;;;;5071789;28;20047;-61
2021/12/23 01:20:31;;;;;;;21.95;11.82;;;;;;;;;;5071746;28;20040;-61
2021/12/23 01:23:06;;;;;;;22.45;11.68;;;;;;;;;;5074180;28;20473;-62
2021/12/23 01:25:34;;;;;;;23.17;11.48;;;;;;;;;;5072745;28;20044;-61
2021/12/23 01:28:00;;;;;;;21.02;10.73;;;;;;;;;;5072454;28;20036;-61
2021/12/23 01:30:26;;;;;;;23.48;11.35;;;;;;;;;;5071977;28;20532;-61
2021/12/23 01:32:54;;;;;;;23.30;10.85;;;;;;;;;;5072905;28;20029;-61
2021/12/23 01:35:20;;;;;;;21.90;10.52;;;;;;;;;;5069990;28;20481;-61
2021/12/23 01:37:46;;;;;;;24.45;10.60;;;;;;;;;;5073385;28;20024;-61
2021/12/23 01:40:14;;;;;;;22.67;11.20;;;;;;;;;;5069032;28;20036;-61
2021/12/23 01:42:39;;;;;;;20.92;10.65;;;;;;;;;;5074616;28;20032;-61
2021/12/23 01:45:16;;;;;;;20.33;11.07;;;;;;;;;;5071253;28;20029;-62
2021/12/23 01:47:42;;;;;;;26.10;11.05;;;;;;;;;;5071676;28;20127;-61
2021/12/23 01:50:10;;;;;;;22.77;11.70;;;;;;;;;;5071377;28;20462;-62
2021/12/23 01:52:36;;;;;;;22.50;11.23;;;;;;;;;;5073575;28;20473;-61
2021/12/23 01:55:01;;;;;;;22.42;11.48;;;;;;;;;;5073042;28;20028;-62
2021/12/23 01:57:31;;;;;;;21.98;11.15;;;;;;;;;;5073187;28;21971;-61
2021/12/23 01:59:58;;;;;;;21.20;11.57;;;;;;;;;;5074171;28;20028;-61
2021/12/23 02:02:23;;;;;;;24.85;12.05;;;;;;;;;;5066665;28;20028;-61
2021/12/23 02:04:49;;;;;;;24.08;11.43;;;;;;;;;;5072387;28;20116;-61
2021/12/23 02:07:15;;;;;;;24.58;12.30;;;;;;;;;;5071699;28;20028;-61
2021/12/23 02:09:40;;;;;;;21.45;11.45;;;;;;;;;;5072394;28;20115;-61
2021/12/23 02:12:06;;;;;;;23.20;10.80;;;;;;;;;;5066402;28;20060;-61
2021/12/23 02:14:32;;;;;;;23.23;11.40;;;;;;;;;;5054830;28;20032;-61
2021/12/23 02:16:57;;;;;;;22.27;11.40;;;;;;;;;;5068178;28;20043;-61
2021/12/23 02:19:22;;;;;;;23.20;11.27;;;;;;;;;;5071959;28;20466;-61
2021/12/23 02:21:48;;;;;;;22.45;11.88;;;;;;;;;;5072144;28;20036;-61
2021/12/23 02:24:15;;;;;;;22.52;11.23;;;;;;;;;;5071841;28;20033;-61
2021/12/23 02:26:41;;;;;;;20.38;11.45;;;;;;;;;;5069595;28;20040;-61
2021/12/23 02:29:07;;;;;;;22.08;11.60;;;;;;;;;;5072227;28;20028;-61
2021/12/23 02:31:34;;;;;;;24.88;11.45;;;;;;;;;;5072642;28;20040;-61
2021/12/23 02:34:00;;;;;;;21.75;11.40;;;;;;;;;;5072686;28;20036;-61
2021/12/23 02:36:30;;;;;;;24.67;11.32;;;;;;;;;;5070658;28;20032;-61
2021/12/23 02:38:57;;;;;;;22.47;11.70;;;;;;;;;;5072136;28;20035;-61
2021/12/23 02:41:22;;;;;;;24.23;12.35;;;;;;;;;;5072017;28;20281;-61
2021/12/23 02:43:48;;;;;;;24.83;12.27;;;;;;;;;;5072536;28;20036;-60
2021/12/23 02:46:13;;;;;;;24.45;12.27;;;;;;;;;;5070257;28;20032;-61
2021/12/23 02:48:39;;;;;;;25.25;11.93;;;;;;;;;;5070464;28;20477;-61
2021/12/23 02:51:09;;;;;;;23.40;11.75;;;;;;;;;;5070017;28;20175;-61
2021/12/23 02:53:36;;;;;;;21.83;11.23;;;;;;;;;;5071265;28;20039;-62
2021/12/23 02:56:04;;;;;;;23.17;11.98;;;;;;;;;;5061715;28;20032;-61
2021/12/23 02:58:30;;;;;;;25.48;11.88;;;;;;;;;;5052061;28;20037;-61
2021/12/23 03:00:57;;;;;;;21.92;11.20;;;;;;;;;;5051755;28;20029;-62
2021/12/23 03:03:23;;;;;;;21.55;11.00;;;;;;;;;;5068296;28;20025;-61
2021/12/23 03:05:55;;;;;;;25.35;11.82;;;;;;;;;;5070911;28;20047;-62
2021/12/23 03:08:27;;;;;;;23.95;11.10;;;;;;;;;;5071057;28;20036;-61
2021/12/23 03:10:53;;;;;;;21.83;11.32;;;;;;;;;;5071288;28;20127;-61
2021/12/23 03:13:18;;;;;;;20.83;10.77;;;;;;;;;;5069410;28;20528;-61
2021/12/23 03:15:44;;;;;;;18.70;11.13;;;;;;;;;;5071323;28;20028;-61
2021/12/23 03:18:09;;;;;;;21.00;10.90;;;;;;;;;;5069786;28;20028;-61
2021/12/23 03:20:35;;;;;;;22.55;11.32;;;;;;;;;;5070683;28;20082;-61
2021/12/23 03:23:00;;;;;;;22.25;11.80;;;;;;;;;;5069897;28;20032;-61
2021/12/23 03:25:25;;;;;;;22.45;11.70;;;;;;;;;;5071695;28;20024;-61
2021/12/23 03:27:51;;;;;;;22.35;11.73;;;;;;;;;;5071798;28;20067;-61
2021/12/23 03:30:16;;;;;;;23.02;11.93;;;;;;;;;;5068118;28;20032;-61
2021/12/23 03:32:42;;;;;;;23.00;11.48;;;;;;;;;;5069965;28;20037;-61
2021/12/23 03:35:07;;;;;;;21.77;11.27;;;;;;;;;;5068450;28;20426;-61
2021/12/23 03:37:33;;;;;;;23.58;12.38;;;;;;;;;;5070017;28;20028;-60
2021/12/23 03:39:58;;;;;;;22.48;11.20;;;;;;;;;;5070673;28;20099;-62
2021/12/23 03:42:23;;;;;;;23.52;11.32;;;;;;;;;;5070216;28;20541;-62
2021/12/23 03:44:49;;;;;;;25.38;11.82;;;;;;;;;;5071429;28;20036;-61
2021/12/23 03:47:15;;;;;;;23.13;11.13;;;;;;;;;;5069078;28;20032;-61
2021/12/23 03:49:40;;;;;;;21.95;11.63;;;;;;;;;;5070307;28;20439;-62
2021/12/23 03:52:06;;;;;;;23.20;11.80;;;;;;;;;;5069556;28;20617;-62
2021/12/23 03:54:31;;;;;;;23.05;11.38;;;;;;;;;;5071339;28;20077;-62
2021/12/23 03:56:57;;;;;;;24.80;11.85;;;;;;;;;;5056600;28;20085;-62
2021/12/23 03:59:22;;;;;;;23.70;12.25;;;;;;;;;;5070487;28;20025;-61
2021/12/23 04:01:48;;;;;;;24.85;11.90;;;;;;;;;;5068252;28;20032;-62
2021/12/23 04:04:13;;;;;;;27.80;12.63;;;;;;;;;;5067700;28;20028;-61
2021/12/23 04:06:39;;;;;;;22.13;11.57;;;;;;;;;;5071579;28;20033;-61
2021/12/23 04:09:04;;;;;;;24.98;12.15;;;;;;;;;;5069610;28;20025;-61
2021/12/23 04:11:30;;;;;;;22.70;11.70;;;;;;;;;;5070460;28;20032;-61
2021/12/23 04:13:55;;;;;;;23.63;11.55;;;;;;;;;;5069630;28;20135;-61
2021/12/23 04:16:21;;;;;;;22.05;11.52;;;;;;;;;;5069165;28;20111;-61
2021/12/23 04:18:50;;;;;;;23.88;12.07;;;;;;;;;;5070014;28;20028;-61
2021/12/23 04:21:15;;;;;;;25.80;12.13;;;;;;;;;;5068880;28;20039;-61
2021/12/23 04:23:40;;;;;;;26.73;12.50;;;;;;;;;;5069459;28;20032;-61
2021/12/23 04:26:09;;;;;;;23.48;12.20;;;;;;;;;;5069880;28;20051;-62
2021/12/23 04:28:44;;;;;;;23.48;11.90;;;;;;;;;;5069572;28;20493;-61
2021/12/23 04:31:09;;;;;;;27.73;13.13;;;;;;;;;;5069413;28;20036;-62
2021/12/23 04:33:35;;;;;;;23.85;12.02;;;;;;;;;;5068649;28;20040;-62
2021/12/23 04:36:00;;;;;;;25.13;12.80;;;;;;;;;;5069111;28;20029;-61
2021/12/23 04:38:25;;;;;;;22.83;12.30;;;;;;;;;;5070086;28;20275;-62
2021/12/23 04:40:51;;;;;;;24.58;12.60;;;;;;;;;;5070322;28;20077;-62
2021/12/23 04:43:16;;;;;;;23.88;12.70;;;;;;;;;;5069706;28;20056;-61
2021/12/23 04:45:42;;;;;;;25.60;12.15;;;;;;;;;;5070510;28;20058;-61
2021/12/23 04:48:07;;;;;;;29.15;13.55;;;;;;;;;;5069599;28;20036;-62
2021/12/23 04:50:32;;;;;;;25.40;12.70;;;;;;;;;;5068838;28;20392;-61
2021/12/23 04:52:58;;;;;;;22.08;12.32;;;;;;;;;;5069576;28;20390;-62
2021/12/23 04:55:23;;;;;;;26.27;13.88;;;;;;;;;;5068843;28;20451;-61
2021/12/23 04:57:49;;;;;;;27.67;14.10;;;;;;;;;;5068573;28;20515;-61
2021/12/23 05:00:18;;;;;;;24.27;12.38;;;;;;;;;;5066310;28;20532;-61
2021/12/23 05:02:44;;;;;;;31.00;14.27;;;;;;;;;;5066498;28;20028;-61
2021/12/23 05:05:10;;;;;;;30.77;14.05;;;;;;;;;;5068930;28;20024;-62
2021/12/23 05:07:36;;;;;;;29.88;14.65;;;;;;;;;;5062915;28;20029;-61
2021/12/23 05:10:03;;;;;;;27.35;14.15;;;;;;;;;;5069409;28;20115;-62
2021/12/23 05:12:28;;;;;;;28.50;13.02;;;;;;;;;;5067629;28;20570;-61
2021/12/23 05:14:54;;;;;;;27.88;14.10;;;;;;;;;;5071028;28;20107;-61
2021/12/23 05:17:19;;;;;;;26.70;13.07;;;;;;;;;;5067212;28;20021;-62
2021/12/23 05:19:45;;;;;;;26.67;13.88;;;;;;;;;;5070941;28;20033;-61
2021/12/23 05:22:10;;;;;;;26.95;13.48;;;;;;;;;;5065738;28;20054;-62
2021/12/23 05:24:35;;;;;;;27.65;12.63;;;;;;;;;;5068815;28;20047;-61
2021/12/23 05:27:01;;;;;;;28.67;13.88;;;;;;;;;;5070146;28;20111;-61
2021/12/23 05:29:27;;;;;;;33.70;15.48;;;;;;;;;;5068578;28;20037;-61
2021/12/23 05:31:52;;;;;;;35.55;14.95;;;;;;;;;;5068018;28;20042;-61
2021/12/23 05:34:18;;;;;;;33.95;15.00;;;;;;;;;;5069642;28;20069;-61
2021/12/23 05:36:43;;;;;;;29.40;14.10;;;;;;;;;;5062707;28;20033;-62
2021/12/23 05:39:09;;;;;;;29.17;14.60;;;;;;;;;;5070203;28;20028;-62
2021/12/23 05:41:34;;;;;;;31.98;14.90;;;;;;;;;;5067182;28;20024;-61
2021/12/23 05:44:00;;;;;;;31.77;14.70;;;;;;;;;;5064684;28;20111;-61
2021/12/23 05:46:26;;;;;;;29.65;15.27;;;;;;;;;;5069688;28;20033;-61
2021/12/23 05:48:52;;;;;;;25.90;14.73;;;;;;;;;;5071888;28;20059;-61
2021/12/23 05:51:17;;;;;;;33.90;15.75;;;;;;;;;;5072581;28;20132;-62
2021/12/23 05:53:43;;;;;;;31.65;14.63;;;;;;;;;;5082964;28;20453;-62
2021/12/23 05:56:09;;;;;;;31.77;14.77;;;;;;;;;;5081784;28;20075;-61
2021/12/23 05:58:34;;;;;;;31.45;14.52;;;;;;;;;;5073757;28;20114;-61
2021/12/23 06:01:00;;;;;;;32.67;14.05;;;;;;;;;;5073602;28;20040;-61
2021/12/23 06:03:26;;;;;;;29.92;14.30;;;;;;;;;;5073721;28;20032;-61
2021/12/23 06:05:52;;;;;;;33.33;15.82;;;;;;;;;;5073997;28;20032;-61
2021/12/23 06:08:17;;;;;;;33.05;15.90;;;;;;;;;;5071794;28;20452;-62
2021/12/23 06:10:43;;;;;;;32.13;14.98;;;;;;;;;;5079872;28;20487;-61
2021/12/23 06:13:08;;;;;;;29.90;14.55;;;;;;;;;;5074609;28;20052;-62
2021/12/23 06:15:33;;;;;;;35.03;15.73;;;;;;;;;;5073353;28;20123;-62
2021/12/23 06:17:59;;;;;;;28.75;13.77;;;;;;;;;;5074490;28;20116;-61
2021/12/23 06:20:24;;;;;;;30.02;15.35;;;;;;;;;;5071934;28;20078;-62
2021/12/23 06:22:50;;;;;;;28.38;13.68;;;;;;;;;;5063665;28;20041;-62
2021/12/23 06:25:16;;;;;;;33.25;15.43;;;;;;;;;;5066691;28;20063;-62
2021/12/23 06:27:42;;;;;;;34.25;17.08;;;;;;;;;;5083582;28;20020;-61
2021/12/23 06:30:18;;;;;;;36.35;18.42;;;;;;;;;;5081515;28;20063;-62
2021/12/23 06:32:50;;;;;;;33.50;15.23;;;;;;;;;;5064931;28;20032;-62
2021/12/23 06:35:16;;;;;;;28.10;13.50;;;;;;;;;;5073676;28;20024;-62
2021/12/23 06:37:42;;;;;;;28.88;13.75;;;;;;;;;;5073600;28;20501;-63
2021/12/23 06:40:08;;;;;;;26.48;13.02;;;;;;;;;;5056194;28;20118;-62
2021/12/23 06:42:34;;;;;;;24.80;13.02;;;;;;;;;;5072223;28;20028;-62
2021/12/23 06:44:59;;;;;;;26.65;13.50;;;;;;;;;;5074577;28;20033;-61
2021/12/23 06:47:25;;;;;;;29.35;13.45;;;;;;;;;;5071969;28;20058;-61
2021/12/23 06:49:50;;;;;;;28.73;13.73;;;;;;;;;;5073969;28;20047;-62
2021/12/23 06:52:15;;;;;;;31.90;14.13;;;;;;;;;;5072848;28;20363;-62
2021/12/23 06:54:46;;;;;;;44.20;17.48;;;;;;;;;;5068185;28;20408;-61
2021/12/23 06:57:13;;;;;;;42.53;17.95;;;;;;;;;;5065867;28;20036;-62
2021/12/23 06:59:38;;;;;;;29.92;14.35;;;;;;;;;;5054324;28;20041;-62
2021/12/23 07:02:04;;;;;;;25.95;12.77;;;;;;;;;;5072737;28;20075;-62
2021/12/23 07:04:32;;;;;;;34.05;13.77;;;;;;;;;;5072561;28;20029;-63
2021/12/23 07:07:12;;;;;;;28.63;14.35;;;;;;;;;;5073413;28;20028;-62
2021/12/23 07:09:40;;;;;;;31.95;14.10;;;;;;;;;;5071074;28;20029;-63
2021/12/23 07:12:08;;;;;;;31.00;15.57;;;;;;;;;;5072979;28;20044;-62
2021/12/23 07:14:34;;;;;;;31.30;14.77;;;;;;;;;;5070396;28;20401;-62
2021/12/23 07:16:59;;;;;;;29.92;14.27;;;;;;;;;;5072560;28;20128;-63
2021/12/23 07:19:25;;;;;;;30.65;14.20;;;;;;;;;;5070050;28;20104;-61
2021/12/23 07:21:51;;;;;;;28.52;14.05;;;;;;;;;;5071118;28;20063;-63
2021/12/23 07:24:17;;;;;;;29.08;13.85;;;;;;;;;;5072125;28;20080;-64
2021/12/23 07:26:43;;;;;;;29.38;13.65;;;;;;;;;;5070194;28;20438;-62
2021/12/23 07:29:09;;;;;;;30.02;14.15;;;;;;;;;;5071327;28;20035;-62
2021/12/23 07:31:34;;;;;;;36.28;15.30;;;;;;;;;;5069963;28;20441;-60
2021/12/23 07:33:59;;;;;;;34.78;14.35;;;;;;;;;;5072433;28;20482;-64
2021/12/23 07:36:27;;;;;;;33.15;15.00;;;;;;;;;;5072269;28;20036;-62
2021/12/23 07:38:53;;;;;;;30.10;14.18;;;;;;;;;;5072349;28;20029;-62
2021/12/23 07:41:19;;;;;;;33.33;14.20;;;;;;;;;;5072294;28;20062;-63
2021/12/23 07:43:57;;;;;;;30.70;14.32;;;;;;;;;;5072372;28;20063;-61
2021/12/23 07:46:24;;;;;;;27.90;13.88;;;;;;;;;;5071666;28;20036;-63
2021/12/23 07:48:49;;;;;;;30.27;14.82;;;;;;;;;;5071166;28;20441;-62
2021/12/23 07:51:15;;;;;;;34.45;14.63;;;;;;;;;;5071922;28;20032;-61
2021/12/23 07:53:40;;;;;;;30.00;14.70;;;;;;;;;;5072056;28;20102;-62
2021/12/23 07:56:06;;;;;;;31.17;14.85;;;;;;;;;;5070493;28;20377;-62
2021/12/23 07:58:32;;;;;;;29.95;14.85;;;;;;;;;;5058743;28;20044;-63
2021/12/23 08:00:57;;;;;;;29.15;13.98;;;;;;;;;;5063969;28;20028;-63
2021/12/23 08:03:23;;;;;;;28.35;14.02;;;;;;;;;;5071559;28;20039;-63
2021/12/23 08:05:49;;;;;;;31.48;14.85;;;;;;;;;;5072694;28;20477;-62
2021/12/23 08:08:14;;;;;;;34.35;17.63;;;;;;;;;;5068517;28;20454;-62
2021/12/23 08:10:39;;;;;;;34.13;15.23;;;;;;;;;;5067244;28;20093;-62
2021/12/23 08:13:07;;;;;;;35.40;18.13;;;;;;;;;;5071871;28;20106;-62
2021/12/23 08:15:33;;;;;;;35.80;16.85;;;;;;;;;;5069061;28;20043;-62
2021/12/23 08:17:58;;;;;;;34.45;16.50;;;;;;;;;;5072577;28;20036;-62
2021/12/23 08:20:24;;;;;;;30.90;15.38;;;;;;;;;;5071631;28;20032;-62
2021/12/23 08:22:49;;;;;;;31.77;15.95;;;;;;;;;;5072528;28;20024;-62
2021/12/23 08:25:16;;;;;;;32.15;16.23;;;;;;;;;;5072285;28;20414;-62
2021/12/23 08:27:43;;;;;;;30.65;16.17;;;;;;;;;;5070086;28;20192;-62
2021/12/23 08:30:10;;;;;;;33.67;17.05;;;;;;;;;;5067089;28;20017;-62
2021/12/23 08:32:37;;;;;;;33.30;15.98;;;;;;;;;;5051214;28;20166;-62
2021/12/23 08:35:03;;;;;;;30.00;15.85;;;;;;;;;;5051990;28;20033;-62
2021/12/23 08:37:29;;;;;;;31.52;16.23;;;;;;;;;;5051193;28;20047;-62
2021/12/23 08:39:54;;;;;;;31.38;15.05;;;;;;;;;;5051984;28;20025;-62
2021/12/23 08:42:20;;;;;;;31.67;16.15;;;;;;;;;;5064663;28;20486;-63
2021/12/23 08:44:46;;;;;;;33.70;15.85;;;;;;;;;;5068153;28;20150;-62
2021/12/23 08:47:13;;;;;;;29.77;14.85;;;;;;;;;;5065815;28;20119;-61
2021/12/23 08:49:40;;;;;;;34.03;15.02;;;;;;;;;;5070410;28;20390;-62
2021/12/23 08:52:06;;;;;;;26.92;14.80;;;;;;;;;;5068937;28;20037;-62
2021/12/23 08:54:31;;;;;;;30.45;15.25;;;;;;;;;;5069988;28;20040;-62
2021/12/23 08:56:57;;;;;;;36.13;15.68;;;;;;;;;;5071654;28;20528;-63
2021/12/23 08:59:22;;;;;;;28.08;15.15;;;;;;;;;;5068704;28;20032;-64
2021/12/23 09:01:48;;;;;;;30.23;14.65;;;;;;;;;;5070912;28;20047;-63
2021/12/23 09:04:13;;;;;;;30.02;15.10;;;;;;;;;;5068427;28;20028;-62
2021/12/23 09:06:38;;;;;;;31.58;15.00;;;;;;;;;;5068790;28;20470;-63
2021/12/23 09:09:05;;;;;;;31.48;15.27;;;;;;;;;;5071000;28;20029;-62
2021/12/23 09:11:30;;;;;;;27.27;14.60;;;;;;;;;;5070463;28;20032;-63
2021/12/23 09:13:57;;;;;;;32.60;15.50;;;;;;;;;;5071781;28;20374;-62
2021/12/23 09:16:23;;;;;;;29.55;14.75;;;;;;;;;;5069981;28;20086;-63
2021/12/23 09:18:48;;;;;;;31.05;14.77;;;;;;;;;;5071042;28;20024;-62
2021/12/23 09:21:14;;;;;;;30.73;15.68;;;;;;;;;;5070420;28;20040;-63
2021/12/23 09:23:40;;;;;;;31.98;15.27;;;;;;;;;;5070296;28;20024;-62
2021/12/23 09:26:09;;;;;;;30.38;14.90;;;;;;;;;;5075272;28;20466;-62
2021/12/23 09:28:53;;;;;;;31.33;14.98;;;;;;;;;;5072023;28;20454;-62
2021/12/23 09:34:04;;;;;;;32.22;15.35;;;;;;;;;;5058496;28;20398;-63
2021/12/23 09:36:29;;;;;;;35.63;15.43;;;;;;;;;;5062318;28;20040;-63
2021/12/23 09:38:55;;;;;;;31.05;15.02;;;;;;;;;;5074337;28;20028;-63
2021/12/23 09:41:21;;;;;;;34.53;16.10;;;;;;;;;;5075062;28;20393;-63
2021/12/23 09:43:48;;;;;;;33.30;15.45;;;;;;;;;;5074103;28;20040;-63
2021/12/23 09:46:16;;;;;;;32.30;15.23;;;;;;;;;;5066841;28;20020;-63
2021/12/23 09:48:44;;;;;;;33.45;16.55;;;;;;;;;;5071750;28;20055;-63
2021/12/23 09:51:11;;;;;;;29.60;15.45;;;;;;;;;;5078819;28;20056;-63
2021/12/23 09:53:40;;;;;;;29.90;15.50;;;;;;;;;;5078152;28;20040;-62
2021/12/23 09:56:06;;;;;;;33.08;16.45;;;;;;;;;;5074371;28;20116;-63
2021/12/23 09:58:32;;;;;;;34.85;16.13;;;;;;;;;;5073373;28;20124;-63
2021/12/23 10:00:59;;;;;;;31.55;15.75;;;;;;;;;;5074782;28;20107;-63
2021/12/23 10:03:25;;;;;;;36.22;16.02;;;;;;;;;;5073584;28;20032;-64
2021/12/23 10:05:51;;;;;;;29.75;15.45;;;;;;;;;;5073899;28;20082;-63
2021/12/23 10:08:17;;;;;;;33.33;16.30;;;;;;;;;;5072923;28;20470;-62
2021/12/23 10:11:02;;;;;;;35.45;15.63;;;;;;;;;;5073272;28;20040;-64
2021/12/23 10:32:56;;;;;;;28.73;13.48;;;;;;;;;;5071741;28;20028;-63
2021/12/23 10:38:14;;;;;;;25.73;13.27;;;;;;;;;;5073900;28;20042;-62
2021/12/23 10:40:43;;;;;;;26.45;13.45;;;;;;;;;;5073021;28;20031;-62
2021/12/23 10:43:11;;;;;;;24.63;13.38;;;;;;;;;;5073784;28;20067;-62
2021/12/23 10:45:47;;;;;;;29.27;14.27;;;;;;;;;;5067954;28;20040;-63
2021/12/23 10:48:15;;;;;;;28.73;13.32;;;;;;;;;;5052809;28;20029;-63
2021/12/23 10:51:23;;;;;;;26.10;12.40;;;;;;;;;;5060945;28;20089;-62
2021/12/23 10:53:44;;;;;;;25.58;12.88;;;;;;;;;;5071223;28;20041;-65
2021/12/23 10:59:06;;;;;;;24.27;12.45;;;;;;;;;;5073567;28;20413;-63
2021/12/23 11:01:33;;;;;;;24.23;12.20;;;;;;;;;;5070477;28;20098;-65
2021/12/23 11:04:01;;;;;;;25.75;12.18;;;;;;;;;;5073388;28;20025;-63
2021/12/23 11:06:36;;;;;;;27.40;12.98;;;;;;;;;;5072223;28;20047;-62
2021/12/23 11:36:34;;;;;;;25.63;11.95;;;;;;;;;;5064529;28;20078;-63
2021/12/23 11:39:09;;;;;;;20.63;11.52;;;;;;;;;;5053960;28;20580;-62
2021/12/23 11:41:39;;;;;;;27.60;12.20;;;;;;;;;;5071818;28;20098;-63
2021/12/23 11:44:06;;;;;;;22.95;11.43;;;;;;;;;;5071081;28;20394;-62
2021/12/23 11:46:50;;;;;;;23.58;11.70;;;;;;;;;;5069465;28;20097;-65
2021/12/23 11:49:17;;;;;;;22.85;11.45;;;;;;;;;;5072350;28;20029;-62
2021/12/23 11:54:18;;;;;;;23.90;11.93;;;;;;;;;;5072541;28;20028;-62
2021/12/23 11:56:53;;;;;;;24.42;11.95;;;;;;;;;;5071436;28;20032;-62
2021/12/23 11:59:20;;;;;;;25.48;11.75;;;;;;;;;;5070738;28;20032;-63
2021/12/23 12:01:52;;;;;;;23.08;11.75;;;;;;;;;;5071301;28;20025;-63
2021/12/23 12:04:35;;;;;;;21.33;11.05;;;;;;;;;;5072104;28;20463;-62
2021/12/23 12:07:11;;;;;;;21.35;11.40;;;;;;;;;;5071935;28;20036;-62
2021/12/23 12:09:38;;;;;;;25.90;11.85;;;;;;;;;;5068148;28;20078;-64
2021/12/23 12:12:08;;;;;;;21.65;11.27;;;;;;;;;;5071658;28;20371;-63
2021/12/23 12:14:36;;;;;;;22.13;11.93;;;;;;;;;;5071433;28;20074;-65
2021/12/23 12:17:23;;;;;;;22.17;11.55;;;;;;;;;;5072211;28;20063;-63
2021/12/23 12:20:09;;;;;;;21.33;10.70;;;;;;;;;;5067914;28;20385;-63
2021/12/23 12:22:56;;;;;;;21.50;10.10;;;;;;;;;;5071544;28;20446;-64
2021/12/23 12:25:24;;;;;;;24.27;10.85;;;;;;;;;;5070496;28;20055;-62
2021/12/23 12:27:51;;;;;;;17.23;8.18;;;;;;;;;;5071058;28;20038;-62
2021/12/23 12:30:21;;;;;;;20.27;10.05;;;;;;;;;;5070653;28;20068;-63
2021/12/23 12:32:47;;;;;;;21.98;10.45;;;;;;;;;;5069841;28;20500;-63
2021/12/23 12:35:19;;;;;;;22.35;9.68;;;;;;;;;;5071550;28;20032;-62
2021/12/23 12:37:45;;;;;;;22.88;9.98;;;;;;;;;;5071071;28;20039;-62
2021/12/23 12:40:11;;;;;;;17.27;7.95;;;;;;;;;;5071381;28;20056;-62
2021/12/23 12:42:42;;;;;;;18.73;9.93;;;;;;;;;;5070166;28;20059;-64
2021/12/23 12:45:13;;;;;;;18.92;8.80;;;;;;;;;;5071297;28;20044;-63
2021/12/23 12:47:52;;;;;;;19.52;9.05;;;;;;;;;;5071239;28;20032;-64
2021/12/23 12:50:25;;;;;;;17.70;9.05;;;;;;;;;;5069650;28;20111;-64
2021/12/23 12:52:54;;;;;;;22.90;9.55;;;;;;;;;;5054733;28;20033;-63
2021/12/23 12:55:26;;;;;;;20.10;10.18;;;;;;;;;;5070461;28;20029;-62
2021/12/23 12:57:58;;;;;;;22.00;9.68;;;;;;;;;;5071937;28;20033;-62
2021/12/23 13:00:28;;;;;;;22.05;9.68;;;;;;;;;;5091655;28;20036;-62
2021/12/23 13:03:22;;;;;;;18.27;7.75;;;;;;;;;;5085543;28;20028;-63
2021/12/23 13:05:50;;;;;;;21.40;9.93;;;;;;;;;;5066459;28;20032;-63
2021/12/23 13:08:35;;;;;;;23.17;9.07;;;;;;;;;;5070739;28;20128;-63
2021/12/23 13:11:22;;;;;;;20.60;9.48;;;;;;;;;;5070134;28;20081;-63
2021/12/23 13:13:59;;;;;;;20.45;9.70;;;;;;;;;;5070614;28;20522;-63
2021/12/23 13:16:25;;;;;;;22.17;9.90;;;;;;;;;;5069849;28;20082;-62
2021/12/23 13:19:31;;;;;;;18.70;9.13;;;;;;;;;;5061131;28;20036;-62
2021/12/23 13:21:58;;;;;;;17.42;8.30;;;;;;;;;;5048893;28;20084;-62
2021/12/23 13:24:26;;;;;;;20.33;9.43;;;;;;;;;;5063090;28;20029;-62
2021/12/23 13:26:53;;;;;;;19.65;8.10;;;;;;;;;;5065922;28;20041;-62
2021/12/23 13:29:25;;;;;;;32.03;9.88;;;;;;;;;;5070689;28;20024;-62
2021/12/23 13:31:51;;;;;;;23.00;9.95;;;;;;;;;;5070401;28;20075;-62
2021/12/23 13:34:23;;;;;;;18.08;7.45;;;;;;;;;;5070785;28;20032;-62
2021/12/23 13:36:52;;;;;;;20.30;9.98;;;;;;;;;;5068347;28;20413;-62
2021/12/23 13:39:24;;;;;;;18.88;9.27;;;;;;;;;;5070680;28;20024;-62
2021/12/23 13:41:55;;;;;;;20.83;9.68;;;;;;;;;;5070131;28;20033;-63
2021/12/23 13:44:21;;;;;;;16.55;7.97;;;;;;;;;;5071311;28;20071;-63
2021/12/23 13:47:06;;;;;;;19.17;9.23;;;;;;;;;;5064441;28;20033;-62
2021/12/23 13:49:53;;;;;;;19.73;9.73;;;;;;;;;;5059551;28;20041;-62
2021/12/23 13:52:23;;;;;;;18.27;9.45;;;;;;;;;;5057743;28;20027;-63
2021/12/23 13:54:53;;;;;;;19.63;8.23;;;;;;;;;;5070195;28;20033;-63
2021/12/23 13:57:21;;;;;;;19.92;9.52;;;;;;;;;;5059219;28;20024;-63
2021/12/23 13:59:49;;;;;;;19.40;9.40;;;;;;;;;;5069654;28;20044;-64
2021/12/23 14:02:17;;;;;;;24.67;9.43;;;;;;;;;;5065710;28;20070;-65
2021/12/23 14:04:47;;;;;;;19.10;9.30;;;;;;;;;;5068678;28;20115;-64
2021/12/23 14:07:14;;;;;;;18.92;9.85;;;;;;;;;;5069463;28;20035;-64
2021/12/23 14:09:47;;;;;;;20.00;9.65;;;;;;;;;;5064105;28;20471;-66
2021/12/23 14:12:15;;;;;;;19.73;9.35;;;;;;;;;;5073144;28;20086;-64
2021/12/23 14:14:56;;;;;;;18.65;9.63;;;;;;;;;;5062487;28;20028;-66
2021/12/23 14:17:29;;;;;;;19.35;9.95;;;;;;;;;;5071037;28;20398;-64
2021/12/23 14:23:12;;;;;;;17.60;7.43;;;;;;;;;;5075388;28;20047;-64
2021/12/23 14:25:59;;;;;;;17.58;8.35;;;;;;;;;;5082607;28;20032;-64
2021/12/23 14:28:37;;;;;;;19.33;9.45;;;;;;;;;;5073720;28;20029;-65
2021/12/23 14:31:12;;;;;;;17.20;9.20;;;;;;;;;;5073307;28;20084;-64
2021/12/23 14:33:50;;;;;;;19.83;9.77;;;;;;;;;;5069921;28;20035;-65
2021/12/23 14:36:20;;;;;;;21.23;8.50;;;;;;;;;;5058673;28;20102;-64
2021/12/23 14:38:59;;;;;;;19.98;8.57;;;;;;;;;;5053092;28;20025;-65
2021/12/23 14:41:51;;;;;;;22.13;10.63;;;;;;;;;;5054105;28;20078;-64
2021/12/23 14:44:28;;;;;;;22.05;7.97;;;;;;;;;;5068836;28;20066;-64
2021/12/23 14:47:25;;;;;;;17.70;8.75;;;;;;;;;;5071857;28;20024;-65
2021/12/23 14:52:53;;;;;;;19.60;9.95;;;;;;;;;;5078589;28;20068;-63
2021/12/23 14:55:23;;;;;;;16.95;9.45;;;;;;;;;;5057993;28;20024;-65
2021/12/23 14:57:56;;;;;;;19.77;8.00;;;;;;;;;;5068371;28;20036;-65
2021/12/23 15:00:34;;;;;;;21.85;10.20;;;;;;;;;;5073289;28;20039;-65
2021/12/23 15:03:09;;;;;;;18.67;9.15;;;;;;;;;;5071485;28;20037;-65
2021/12/23 15:05:37;;;;;;;24.08;10.60;;;;;;;;;;5070744;28;20036;-64
2021/12/23 15:08:25;;;;;;;18.80;8.57;;;;;;;;;;5071100;28;20246;-66
2021/12/23 15:10:53;;;;;;;17.92;8.90;;;;;;;;;;5070578;28;20101;-64
2021/12/23 15:13:31;;;;;;;23.80;9.25;;;;;;;;;;5068710;28;20049;-63
2021/12/23 15:16:01;;;;;;;23.10;11.52;;;;;;;;;;5069398;28;20040;-64
2021/12/23 15:22:00;;;;;;;26.65;9.18;;;;;;;;;;5072190;28;20039;-63
2021/12/23 15:24:24;;;;;;;20.88;8.85;;;;;;;;;;5071806;28;20428;-63
2021/12/23 15:27:05;;;;;;;17.38;8.90;;;;;;;;;;5069611;28;20058;-64
2021/12/23 15:29:42;;;;;;;21.73;10.80;;;;;;;;;;5069756;28;20053;-64
2021/12/23 15:32:16;;;;;;;18.58;10.27;;;;;;;;;;5074592;28;20265;-64
2021/12/23 15:34:49;;;;;;;24.50;12.02;;;;;;;;;;5053230;28;20032;-63
2021/12/23 15:37:17;;;;;;;17.95;8.80;;;;;;;;;;5071982;28;20040;-64
2021/12/23 15:39:43;;;;;;;22.58;10.75;;;;;;;;;;5073007;28;20040;-64
2021/12/23 15:42:11;;;;;;;26.50;11.60;;;;;;;;;;5069557;28;20398;-64